Time;durP1;ratioP1;P1;durP2;ratioP2;P2;SDS_P1;SDS_P2;PMS_P1;PMS_P2;Temp;Humidity;BMP_temperature;BMP_pressure;BME280_temperature;BME280_humidity;BME280_pressure;Samples;Min_cycle;Max_cycle;Signal;HPM_P1;HPM_P2
2021/03/29 00:01:13;;;;;;;28.47;13.60;;;;;;;4.29;66.62;101701.80;1643870;85;26573;-77
2021/03/29 00:03:40;;;;;;;29.10;14.73;;;;;;;4.31;66.72;101702.55;1642614;85;25745;-77
2021/03/29 00:06:06;;;;;;;25.15;14.68;;;;;;;4.37;66.81;101702.65;1640762;84;25872;-77
2021/03/29 00:08:34;;;;;;;28.57;15.75;;;;;;;4.40;66.78;101697.28;1614853;85;25354;-78
2021/03/29 00:11:02;;;;;;;29.72;16.87;;;;;;;4.43;66.86;101698.39;1641998;85;25807;-77
2021/03/29 00:13:30;;;;;;;36.58;17.45;;;;;;;4.46;66.81;101693.03;1615090;86;26732;-77
2021/03/29 00:15:58;;;;;;;30.15;15.68;;;;;;;4.49;66.84;101695.89;1641582;85;25848;-78
2021/03/29 00:18:25;;;;;;;30.72;16.80;;;;;;;4.51;66.87;101696.17;1617030;86;25846;-77
2021/03/29 00:20:59;;;;;;;32.53;17.15;;;;;;;4.49;66.88;101694.13;1670378;84;25672;-78
2021/03/29 00:23:26;;;;;;;29.02;16.97;;;;;;;4.49;66.91;101694.13;1614356;86;26533;-78
2021/03/29 00:25:53;;;;;;;30.90;16.35;;;;;;;4.52;66.94;101697.00;1640436;84;26809;-78
2021/03/29 00:28:19;;;;;;;27.82;15.40;;;;;;;4.49;66.91;101692.84;1644895;85;26561;-78
2021/03/29 00:30:48;;;;;;;32.05;17.02;;;;;;;4.41;66.93;101684.70;1664928;83;25775;-78
2021/03/29 00:33:16;;;;;;;23.83;14.98;;;;;;;4.44;67.04;101686.63;1641238;84;25924;-78
2021/03/29 00:35:46;;;;;;;27.73;15.45;;;;;;;4.43;67.08;101684.16;1611884;86;25897;-78
2021/03/29 00:38:14;;;;;;;;;;;;;;;4.43;67.16;101684.16;1627812;86;25849;-78
2021/03/29 00:40:48;;;;;;;25.80;14.05;;;;;;;4.44;67.27;101687.10;1624924;85;26657;-77
2021/03/29 00:43:25;;;;;;;28.25;14.87;;;;;;;4.43;67.33;101687.56;1658422;84;25616;-78
2021/03/29 00:45:54;;;;;;;29.45;14.83;;;;;;;4.43;67.27;101689.33;1657157;83;26419;-77
2021/03/29 00:48:24;;;;;;;26.82;14.93;;;;;;;4.41;67.23;101694.59;1658530;83;25632;-78
2021/03/29 00:51:14;;;;;;;28.43;14.27;;;;;;;4.36;67.26;101694.03;1656426;84;25779;-77
2021/03/29 00:53:45;;;;;;;28.38;14.53;;;;;;;4.35;67.41;101692.38;1660334;82;25832;-78
2021/03/29 00:56:13;;;;;;;29.90;14.13;;;;;;;4.36;67.59;101695.32;1659519;83;26702;-78
2021/03/29 00:58:40;;;;;;;24.15;13.18;;;;;;;4.39;67.66;101699.48;1659788;83;26078;-78
2021/03/29 01:01:14;;;;;;;21.40;12.93;;;;;;;4.44;67.77;101697.45;1636246;85;25794;-78
2021/03/29 01:03:46;;;;;;;25.82;14.73;;;;;;;4.49;67.79;101704.95;1662179;84;26730;-78
2021/03/29 01:06:16;;;;;;;26.87;14.68;;;;;;;4.54;67.52;101701.63;1658672;84;25686;-78
2021/03/29 01:08:46;;;;;;;22.58;14.20;;;;;;;4.58;67.65;101696.19;1658107;84;25795;-78
2021/03/29 01:11:17;;;;;;;24.02;14.07;;;;;;;4.65;67.68;101691.45;1656322;84;25837;-78
2021/03/29 01:13:54;;;;;;;25.05;14.63;;;;;;;4.67;67.46;101700.80;1656892;84;26338;-79
2021/03/29 01:16:23;;;;;;;23.32;15.08;;;;;;;4.62;67.41;101695.53;1659507;83;26486;-78
2021/03/29 01:18:53;;;;;;;25.23;14.87;;;;;;;4.62;67.62;101689.05;1569192;87;25845;-78
2021/03/29 01:21:46;;;;;;;25.25;14.87;;;;;;;4.68;67.67;101689.50;1658339;84;25775;-78
2021/03/29 01:24:55;;;;;;;22.37;13.15;;;;;;;4.72;67.56;101691.45;1660921;84;25856;-78
2021/03/29 01:27:35;;;;;;;23.77;13.72;;;;;;;4.71;67.37;101691.53;1661948;83;26729;-78
2021/03/29 01:30:05;;;;;;;24.30;14.40;;;;;;;4.68;67.52;101692.08;1660543;83;33933;-78
2021/03/29 01:32:32;;;;;;;26.35;15.10;;;;;;;4.67;67.62;101691.73;1624332;86;25743;-78
2021/03/29 01:34:59;;;;;;;22.40;12.98;;;;;;;4.70;67.61;101687.30;1662315;84;26554;-78
2021/03/29 01:37:27;;;;;;;23.70;13.48;;;;;;;4.63;67.55;101688.94;1655942;82;25868;-78
2021/03/29 01:39:55;;;;;;;23.77;14.00;;;;;;;4.61;67.63;101692.55;1631254;85;26261;-78
2021/03/29 01:42:23;;;;;;;24.87;13.22;;;;;;;4.60;67.73;101692.19;1633290;86;25761;-78
2021/03/29 01:44:49;;;;;;;26.23;14.80;;;;;;;4.62;67.81;101688.58;1656215;84;26294;-78
2021/03/29 01:47:16;;;;;;;22.65;12.50;;;;;;;4.65;67.85;101688.39;1634638;86;26419;-78
2021/03/29 01:49:43;;;;;;;20.27;12.35;;;;;;;4.68;67.92;101690.79;1630586;86;25791;-76
2021/03/29 01:52:10;;;;;;;23.47;14.18;;;;;;;4.71;67.98;101691.53;1638740;86;25819;-78
2021/03/29 01:54:37;;;;;;;24.60;14.73;;;;;;;4.64;67.79;101688.03;1632832;85;26623;-78
2021/03/29 01:57:09;;;;;;;21.12;12.18;;;;;;;4.66;67.99;101690.52;1629440;85;26454;-78
2021/03/29 01:59:37;;;;;;;28.60;13.50;;;;;;;4.70;68.08;101693.30;1654696;84;25927;-77
2021/03/29 02:02:05;;;;;;;23.27;11.78;;;;;;;4.75;68.08;101688.67;1654945;84;25940;-78
2021/03/29 02:04:32;;;;;;;26.90;13.03;;;;;;;4.78;67.98;101686.36;1655759;85;25943;-78
2021/03/29 02:07:02;;;;;;;23.73;11.65;;;;;;;4.82;68.08;101689.11;1654440;85;26664;-78
2021/03/29 02:09:29;;;;;;;27.40;13.90;;;;;;;4.86;68.01;101694.48;1654248;85;25826;-78
2021/03/29 02:11:56;;;;;;;27.62;13.22;;;;;;;4.91;68.00;101692.45;1605068;87;25895;-78
2021/03/29 02:14:26;;;;;;;21.85;12.18;;;;;;;4.96;67.95;101694.73;1631323;86;26461;-78
2021/03/29 02:16:55;;;;;;;24.30;13.40;;;;;;;4.97;67.90;101695.95;1629293;85;26386;-78
2021/03/29 02:19:23;;;;;;;35.03;11.88;;;;;;;4.99;67.95;101695.39;1631436;84;25715;-78
2021/03/29 02:21:51;;;;;;;22.07;12.98;;;;;;;5.04;68.03;101689.44;1656308;84;25925;-78
2021/03/29 02:24:18;;;;;;;22.02;13.70;;;;;;;5.05;67.96;101693.70;1655691;85;25344;-78
2021/03/29 02:26:45;;;;;;;19.98;12.75;;;;;;;5.08;67.95;101687.50;1655002;85;25787;-77
2021/03/29 02:29:13;;;;;;;24.65;13.15;;;;;;;5.08;67.88;101688.80;1644316;84;25939;-78
2021/03/29 02:31:39;;;;;;;24.32;13.18;;;;;;;5.07;67.86;101689.27;1635899;86;26600;-78
2021/03/29 02:34:07;;;;;;;24.40;13.20;;;;;;;5.06;67.79;101683.70;1654661;84;25834;-78
2021/03/29 02:36:34;;;;;;;23.05;13.05;;;;;;;5.05;67.76;101682.05;1653531;85;25485;-78
2021/03/29 02:39:00;;;;;;;24.20;12.68;;;;;;;5.03;67.73;101683.07;1655668;85;25753;-78
2021/03/29 02:41:29;;;;;;;23.47;12.93;;;;;;;5.00;67.71;101686.69;1655910;85;25813;-78
2021/03/29 02:43:58;;;;;;;19.87;12.37;;;;;;;4.97;67.82;101686.88;1654912;85;25857;-78
2021/03/29 02:46:28;;;;;;;20.17;12.70;;;;;;;4.97;67.77;101685.59;1630814;86;26093;-78
2021/03/29 02:48:56;;;;;;;;;;;;;;;4.97;67.93;101689.94;1631160;85;25659;-78
2021/03/29 02:51:24;;;;;;;22.65;12.45;;;;;;;4.96;67.89;101690.38;1614995;87;25826;-78
2021/03/29 02:53:58;;;;;;;27.45;13.48;;;;;;;4.95;67.98;101693.08;1632323;86;25758;-78
2021/03/29 02:56:44;;;;;;;21.62;12.50;;;;;;;4.92;67.91;101688.92;1655184;85;26474;-78
2021/03/29 02:59:14;;;;;;;18.82;11.35;;;;;;;4.91;68.00;101695.04;1655006;85;25361;-78
2021/03/29 03:01:41;;;;;;;20.00;11.38;;;;;;;4.88;68.14;101692.61;1606863;87;26593;-78
2021/03/29 03:04:14;;;;;;;21.48;11.12;;;;;;;4.89;68.19;101689.12;1640830;86;25669;-78
2021/03/29 03:06:41;;;;;;;23.02;11.93;;;;;;;4.87;68.18;101684.48;1630040;86;25852;-78
2021/03/29 03:09:13;;;;;;;26.82;11.97;;;;;;;4.93;68.24;101687.16;1631103;85;25749;-78
2021/03/29 03:11:42;;;;;;;21.60;11.55;;;;;;;4.94;68.18;101684.48;1630211;85;26755;-78
2021/03/29 03:14:08;;;;;;;21.93;10.90;;;;;;;4.97;68.18;101681.70;1654388;85;25857;-78
2021/03/29 03:16:39;;;;;;;22.40;11.38;;;;;;;5.00;68.21;101684.56;1638027;85;25853;-78
2021/03/29 03:19:06;;;;;;;19.70;12.58;;;;;;;5.05;68.23;101679.93;1654203;85;25709;-76
2021/03/29 03:21:35;;;;;;;19.73;10.95;;;;;;;5.05;68.20;101681.22;1654562;85;25862;-76
2021/03/29 03:24:03;;;;;;;23.57;12.10;;;;;;;5.06;68.25;101682.88;1654924;85;26423;-76
2021/03/29 03:26:29;;;;;;;20.40;11.28;;;;;;;5.04;68.30;101674.36;1655072;84;25745;-76
2021/03/29 03:28:57;;;;;;;22.25;12.37;;;;;;;5.04;68.33;101672.59;1655883;84;25743;-76
2021/03/29 03:31:24;;;;;;;26.02;12.15;;;;;;;5.03;68.30;101677.42;1654577;85;25891;-77
2021/03/29 03:33:52;;;;;;;18.73;11.38;;;;;;;5.05;68.37;101678.16;1655357;84;26748;-76
2021/03/29 03:36:22;;;;;;;25.05;12.43;;;;;;;5.05;68.44;101672.98;1634043;84;26280;-77
2021/03/29 03:38:51;;;;;;;19.70;10.85;;;;;;;5.06;68.32;101680.28;1653861;85;26452;-77
2021/03/29 03:41:25;;;;;;;21.50;11.40;;;;;;;5.05;68.18;101678.16;1657077;84;25976;-76
2021/03/29 03:43:54;;;;;;;19.85;12.58;;;;;;;5.04;68.03;101682.95;1654010;85;25826;-77
2021/03/29 03:46:26;;;;;;;22.77;11.88;;;;;;;5.03;68.17;101682.60;1656218;85;26377;-78
2021/03/29 03:48:56;;;;;;;22.55;12.55;;;;;;;5.05;68.25;101682.52;1628185;86;25953;-77
2021/03/29 03:51:27;;;;;;;22.07;12.73;;;;;;;5.07;68.27;101687.98;1628939;86;25906;-77
2021/03/29 03:53:53;;;;;;;25.48;12.68;;;;;;;5.08;68.67;101694.81;1619153;87;25389;-77
2021/03/29 03:56:22;;;;;;;21.40;12.13;;;;;;;5.08;68.61;101693.98;1655236;84;26996;-77
2021/03/29 03:58:48;;;;;;;23.50;13.03;;;;;;;5.08;68.84;101694.81;1657069;85;26549;-77
2021/03/29 04:01:17;;;;;;;23.98;12.23;;;;;;;5.11;68.76;101697.67;1605309;87;25899;-77
2021/03/29 04:03:43;;;;;;;21.27;12.60;;;;;;;5.09;68.85;101689.16;1629165;86;25944;-77
2021/03/29 04:06:09;;;;;;;26.00;13.72;;;;;;;5.11;69.12;101695.91;1616504;86;26741;-77
2021/03/29 04:08:36;;;;;;;23.50;13.45;;;;;;;5.12;69.48;101688.95;1632335;86;25777;-77
2021/03/29 04:11:04;;;;;;;25.10;12.90;;;;;;;5.14;69.79;101692.77;1631177;86;25917;-76
2021/03/29 04:13:31;;;;;;;20.75;12.35;;;;;;;5.15;69.89;101687.94;1614708;87;25741;-77
2021/03/29 04:16:01;;;;;;;17.98;11.75;;;;;;;5.16;70.04;101688.32;1628790;86;26422;-77
2021/03/29 04:18:28;;;;;;;23.42;12.28;;;;;;;5.21;70.22;101687.10;1630484;85;29181;-77
2021/03/29 04:20:57;;;;;;;23.07;12.75;;;;;;;5.27;70.25;101691.06;1616639;85;26004;-77
2021/03/29 04:23:25;;;;;;;22.73;11.63;;;;;;;5.25;70.20;101702.81;1655368;85;25724;-77
2021/03/29 04:25:53;;;;;;;23.90;13.75;;;;;;;5.24;70.31;101707.64;1629941;85;25936;-77
2021/03/29 04:28:19;;;;;;;23.95;14.23;;;;;;;5.23;70.23;101706.42;1628870;85;25845;-77
2021/03/29 04:30:46;;;;;;;25.30;14.10;;;;;;;5.21;70.40;101710.42;1628619;85;26560;-77
2021/03/29 04:33:13;;;;;;;23.70;13.78;;;;;;;5.21;70.58;101709.57;1615063;87;25847;-77
2021/03/29 04:35:40;;;;;;;26.02;13.13;;;;;;;5.20;70.88;101707.45;1630261;85;25759;-77
2021/03/29 04:38:07;;;;;;;23.57;14.55;;;;;;;5.23;71.14;101707.25;1647943;84;25837;-77
2021/03/29 04:40:34;;;;;;;24.82;14.90;;;;;;;5.22;71.33;101703.01;1670127;84;25826;-77
2021/03/29 04:43:00;;;;;;;22.60;13.03;;;;;;;5.20;71.40;101705.33;1670511;83;25821;-77
2021/03/29 04:45:27;;;;;;;24.45;13.60;;;;;;;5.18;71.55;101696.81;1670332;84;25744;-77
2021/03/29 04:47:53;;;;;;;28.32;14.20;;;;;;;5.18;71.68;101707.17;1619482;85;25715;-77
2021/03/29 04:50:22;;;;;;;22.32;13.60;;;;;;;5.16;71.87;101702.58;1654766;84;25350;-77
2021/03/29 04:52:49;;;;;;;21.15;12.65;;;;;;;5.15;71.96;101698.30;1657790;84;25857;-77
2021/03/29 04:55:17;;;;;;;27.58;13.28;;;;;;;5.14;72.06;101707.84;1651889;84;26421;-78
2021/03/29 04:57:44;;;;;;;22.30;12.20;;;;;;;5.14;72.22;101705.25;1641020;85;26396;-78
2021/03/29 05:00:13;;;;;;;22.40;12.43;;;;;;;5.14;72.34;101699.24;1645240;85;26934;-77
2021/03/29 05:02:39;;;;;;;23.45;12.73;;;;;;;5.15;72.45;101700.42;1646180;85;25879;-77
2021/03/29 05:05:08;;;;;;;25.75;13.25;;;;;;;5.14;72.49;101693.59;1646095;83;25865;-77
2021/03/29 05:07:35;;;;;;;28.90;14.50;;;;;;;5.17;72.61;101693.86;1644527;84;26374;-78
2021/03/29 05:10:03;;;;;;;20.23;12.98;;;;;;;5.17;72.63;101692.09;1647337;82;25860;-77
2021/03/29 05:12:29;;;;;;;26.65;14.15;;;;;;;5.24;72.69;101692.09;1646426;85;25834;-77
2021/03/29 05:14:55;;;;;;;23.83;15.70;;;;;;;5.29;72.70;101693.06;1620985;85;25996;-77
2021/03/29 05:17:21;;;;;;;24.67;14.55;;;;;;;5.33;72.73;101695.84;1646556;85;26099;-77
2021/03/29 05:22:21;;;;;;;24.43;13.97;;;;;;;5.41;72.73;101682.40;1772972;76;26175;-76
2021/03/29 05:24:48;;;;;;;23.77;14.63;;;;;;;5.37;72.91;101682.22;1723856;80;25816;-76
2021/03/29 05:27:14;;;;;;;31.48;16.10;;;;;;;5.40;73.09;101678.98;1727934;79;25669;-78
2021/03/29 05:29:42;;;;;;;24.63;14.50;;;;;;;5.41;73.10;101683.23;1756716;79;25379;-78
2021/03/29 05:32:21;;;;;;;25.72;15.05;;;;;;;5.40;73.08;101684.16;1755737;79;26412;-78
2021/03/29 05:34:51;;;;;;;28.05;14.98;;;;;;;5.41;73.20;101681.10;1754897;79;25843;-77
2021/03/29 05:37:19;;;;;;;22.58;13.95;;;;;;;5.42;73.32;101675.80;1754251;79;26794;-77
2021/03/29 05:39:50;;;;;;;29.20;15.60;;;;;;;5.49;73.35;101677.55;1731884;80;26623;-78
2021/03/29 05:42:18;;;;;;;25.32;14.28;;;;;;;5.53;73.41;101682.41;1740605;80;25763;-78
2021/03/29 05:44:45;;;;;;;30.37;14.07;;;;;;;5.58;73.51;101683.89;1739155;79;25783;-78
2021/03/29 05:47:15;;;;;;;22.95;14.60;;;;;;;5.62;73.59;101684.91;1739852;79;26103;-78
2021/03/29 05:49:42;;;;;;;24.80;12.90;;;;;;;5.71;73.63;101687.36;1741361;80;25319;-73
2021/03/29 05:52:08;;;;;;;20.85;12.25;;;;;;;5.74;73.55;101691.05;1738243;79;25821;-73
2021/03/29 05:54:35;;;;;;;22.85;13.00;;;;;;;5.82;73.65;101688.77;1727494;80;25784;-73
2021/03/29 05:57:01;;;;;;;26.17;14.03;;;;;;;5.89;73.75;101694.37;1704892;81;25747;-73
2021/03/29 06:01:56;;;;;;;24.18;13.75;;;;;;;5.99;73.66;101697.59;1713743;81;25403;-73
2021/03/29 06:04:48;;;;;;;26.68;13.55;;;;;;;6.05;73.70;101693.75;1709347;81;25692;-73
2021/03/29 06:07:21;;;;;;;22.65;13.03;;;;;;;6.08;73.73;101697.44;1707984;81;26272;-73
2021/03/29 06:09:50;;;;;;;27.80;14.00;;;;;;;6.14;73.83;101696.22;1716649;81;25692;-73
2021/03/29 06:12:19;;;;;;;20.75;13.85;;;;;;;6.21;73.84;101698.28;1696088;81;25833;-73
2021/03/29 06:14:47;;;;;;;19.52;12.13;;;;;;;6.25;73.86;101706.72;1704337;81;26578;-73
2021/03/29 06:17:17;;;;;;;20.80;12.60;;;;;;;6.30;73.91;101707.67;1725538;80;26249;-74
2021/03/29 06:19:48;;;;;;;20.70;13.10;;;;;;;6.32;73.95;101698.85;1733597;80;26024;-73
2021/03/29 06:22:35;;;;;;;26.20;15.18;;;;;;;6.35;73.99;101703.01;1716422;80;26155;-73
2021/03/29 06:25:10;;;;;;;23.00;13.08;;;;;;;6.36;74.12;101701.62;1713397;80;25829;-73
2021/03/29 06:27:57;;;;;;;23.27;12.80;;;;;;;6.41;74.12;101699.55;1716581;80;25909;-73
2021/03/29 06:30:28;;;;;;;23.22;13.85;;;;;;;6.45;74.04;101702.28;1714607;81;25887;-74
2021/03/29 06:33:08;;;;;;;24.15;14.58;;;;;;;6.50;74.25;101701.97;1711409;81;26622;-74
2021/03/29 06:38:25;;;;;;;21.62;13.10;;;;;;;6.65;74.62;101709.16;1725006;78;58576;-77
2021/03/29 06:40:56;;;;;;;18.80;11.73;;;;;;;6.72;74.63;101709.59;1763023;78;25734;-74
2021/03/29 06:43:44;;;;;;;20.15;11.50;;;;;;;6.78;74.69;101712.58;1783145;78;25983;-77
2021/03/29 06:46:28;;;;;;;19.67;11.53;;;;;;;6.85;74.60;101716.89;1788600;78;25718;-77
2021/03/29 06:48:58;;;;;;;22.65;12.13;;;;;;;6.92;74.50;101723.78;1783611;78;25737;-75
2021/03/29 06:51:31;;;;;;;20.92;11.38;;;;;;;6.96;74.51;101729.14;1788712;78;25735;-74
2021/03/29 06:54:08;;;;;;;20.40;11.70;;;;;;;7.01;74.56;101725.28;1785059;78;25365;-76
2021/03/29 06:56:43;;;;;;;20.00;12.73;;;;;;;7.06;74.58;101727.53;1781177;78;26732;-75
2021/03/29 06:59:26;;;;;;;20.05;12.40;;;;;;;7.07;74.47;101722.72;1784771;78;25889;-76
2021/03/29 07:01:55;;;;;;;20.32;11.57;;;;;;;7.10;74.64;101728.99;1779220;78;25591;-76
2021/03/29 07:04:26;;;;;;;19.45;11.70;;;;;;;7.11;74.73;101727.56;1778636;78;25752;-77
2021/03/29 07:06:55;;;;;;;21.05;11.95;;;;;;;7.15;74.72;101736.00;1760151;78;25976;-78
2021/03/29 07:09:24;;;;;;;18.55;11.05;;;;;;;7.15;74.62;101729.50;1777790;78;25842;-76
2021/03/29 07:11:52;;;;;;;20.55;11.30;;;;;;;7.17;74.64;101732.80;1753201;79;26159;-75
2021/03/29 07:14:21;;;;;;;17.48;10.38;;;;;;;7.17;74.77;101729.38;1765959;77;25924;-77
2021/03/29 07:16:50;;;;;;;18.82;10.00;;;;;;;7.18;74.82;101729.28;1804466;77;26340;-77
2021/03/29 07:19:18;;;;;;;17.62;9.28;;;;;;;7.22;75.14;101726.80;1805514;77;25996;-77
2021/03/29 07:21:48;;;;;;;18.55;10.00;;;;;;;7.23;74.96;101732.39;1785851;77;25705;-77
2021/03/29 07:24:17;;;;;;;;;;;;;;;7.27;75.09;101729.09;1811602;77;25335;-77
2021/03/29 07:26:58;;;;;;;16.30;9.23;;;;;;;7.30;75.14;101727.09;1805660;77;25716;-78
2021/03/29 07:29:37;;;;;;;24.60;10.23;;;;;;;7.36;75.42;101721.92;1800327;77;26174;-76
2021/03/29 07:32:10;;;;;;;15.58;9.03;;;;;;;7.43;75.49;101724.92;1807773;77;25791;-76
2021/03/29 07:34:51;;;;;;;15.13;8.60;;;;;;;7.50;75.45;101727.42;1812619;77;26521;-77
2021/03/29 07:37:47;;;;;;;16.27;8.35;;;;;;;7.55;75.44;101720.94;1760214;77;26248;-76
2021/03/29 07:40:22;;;;;;;15.20;8.93;;;;;;;7.61;75.55;101723.59;1751718;80;25769;-76
2021/03/29 07:42:51;;;;;;;22.37;9.18;;;;;;;7.68;75.70;101714.86;1755542;79;25865;-78
2021/03/29 07:45:29;;;;;;;20.13;9.37;;;;;;;7.76;75.77;101720.33;1752722;79;26014;-78
2021/03/29 07:48:11;;;;;;;17.93;11.40;;;;;;;7.84;75.89;101718.47;1753207;79;25856;-76
2021/03/29 07:50:43;;;;;;;17.12;9.33;;;;;;;7.89;75.66;101719.78;1751912;79;25342;-77
2021/03/29 07:53:22;;;;;;;19.10;8.25;;;;;;;7.92;75.84;101718.73;1757060;79;25535;-78
2021/03/29 07:55:53;;;;;;;18.10;8.40;;;;;;;7.95;75.66;101724.52;1755783;79;25739;-77
2021/03/29 07:58:25;;;;;;;20.05;8.25;;;;;;;7.99;75.44;101727.72;1754954;79;25780;-79
2021/03/29 08:01:06;;;;;;;16.40;7.85;;;;;;;8.03;75.46;101733.08;1771474;78;25726;-77
2021/03/29 08:03:41;;;;;;;13.48;7.90;;;;;;;8.08;75.54;101736.17;1782651;78;26004;-78
2021/03/29 08:06:41;;;;;;;17.50;8.43;;;;;;;8.15;75.61;101724.81;1784683;78;26520;-77
2021/03/29 08:09:16;;;;;;;16.70;7.50;;;;;;;8.23;75.77;101718.06;1781561;78;26457;-76
2021/03/29 08:12:01;;;;;;;18.15;9.00;;;;;;;8.34;75.61;101719.04;1714881;81;25715;-77
2021/03/29 08:14:40;;;;;;;15.13;8.00;;;;;;;8.43;75.64;101719.69;1782029;78;25801;-77
2021/03/29 08:17:50;;;;;;;13.43;7.10;;;;;;;8.53;75.43;101715.41;1753957;79;25772;-77
2021/03/29 08:20:28;;;;;;;17.82;7.72;;;;;;;8.61;75.44;101717.43;1759464;79;25771;-77
2021/03/29 08:23:33;;;;;;;16.50;7.58;;;;;;;8.71;75.14;101711.87;1769562;79;26019;-77
2021/03/29 08:26:19;;;;;;;14.53;6.90;;;;;;;8.81;75.22;101710.66;1738847;79;25874;-76
2021/03/29 08:29:11;;;;;;;18.90;8.33;;;;;;;8.96;75.16;101717.28;1743836;79;26023;-75
2021/03/29 08:32:09;;;;;;;12.07;7.10;;;;;;;9.12;75.56;101711.69;1771817;79;25842;-77
2021/03/29 08:34:57;;;;;;;14.30;7.70;;;;;;;9.27;75.14;101708.31;1770176;79;25722;-75
2021/03/29 08:37:34;;;;;;;14.43;7.58;;;;;;;9.36;74.93;101708.91;1770359;78;25766;-75
2021/03/29 08:40:16;;;;;;;14.40;7.90;;;;;;;9.43;74.93;101704.00;1785471;78;25843;-76
2021/03/29 08:42:46;;;;;;;15.83;7.58;;;;;;;9.48;75.02;101703.98;1790080;78;25878;-76
2021/03/29 08:45:16;;;;;;;15.25;7.87;;;;;;;9.53;74.62;101703.62;1791208;78;25789;-75
2021/03/29 08:47:45;;;;;;;12.95;7.30;;;;;;;9.59;74.46;101700.98;1793913;78;25775;-77
2021/03/29 08:50:25;;;;;;;16.75;7.47;;;;;;;9.66;74.51;101709.50;1793073;78;25948;-78
2021/03/29 08:52:59;;;;;;;14.50;6.78;;;;;;;9.74;74.10;101706.27;1792771;78;25855;-77
2021/03/29 08:55:31;;;;;;;17.17;7.97;;;;;;;9.80;73.67;101702.32;1799433;78;26145;-77
2021/03/29 08:57:58;;;;;;;15.88;8.23;;;;;;;9.88;73.79;101698.59;1786163;78;25855;-79
2021/03/29 09:00:38;;;;;;;17.77;9.80;;;;;;;9.97;73.84;101700.43;1782227;78;25351;-77
2021/03/29 09:03:25;;;;;;;18.40;9.08;;;;;;;10.06;73.91;101704.05;1773353;78;25810;-75
2021/03/29 09:05:53;;;;;;;15.70;8.65;;;;;;;10.12;73.67;101704.38;1765178;78;25299;-78
2021/03/29 09:08:21;;;;;;;11.50;6.72;;;;;;;10.19;73.63;101705.50;1766113;78;25813;-77
2021/03/29 09:11:01;;;;;;;14.68;7.90;;;;;;;10.22;73.33;101705.24;1763035;78;25366;-77
2021/03/29 09:13:29;;;;;;;14.53;7.72;;;;;;;10.26;72.91;101704.98;1784176;78;26098;-75
2021/03/29 09:15:56;;;;;;;13.38;6.30;;;;;;;10.30;73.15;101708.55;1762414;78;25982;-75
2021/03/29 09:18:28;;;;;;;14.28;7.67;;;;;;;10.34;73.01;101714.34;1745124;79;25400;-76
2021/03/29 09:20:54;;;;;;;16.65;7.20;;;;;;;10.41;73.08;101716.30;1743196;80;25711;-78
2021/03/29 09:23:28;;;;;;;13.78;7.22;;;;;;;10.51;73.00;101718.98;1742874;80;25724;-75
2021/03/29 09:25:55;;;;;;;13.32;7.45;;;;;;;10.57;73.01;101713.22;1746122;78;25387;-79
2021/03/29 09:31:02;;;;;;;14.98;6.53;;;;;;;10.63;72.31;101715.30;1758156;78;25930;-77
2021/03/29 09:33:32;;;;;;;16.23;6.55;;;;;;;10.63;72.33;101719.22;1762770;78;25844;-77
2021/03/29 09:36:14;;;;;;;13.95;6.62;;;;;;;10.59;72.17;101717.84;1750023;79;25315;-77
2021/03/29 09:38:46;;;;;;;12.95;6.90;;;;;;;10.57;72.22;101718.94;1737058;80;25796;-76
2021/03/29 09:41:26;;;;;;;12.00;6.10;;;;;;;10.59;72.33;101723.08;1745671;79;25683;-80
2021/03/29 09:43:56;;;;;;;13.68;6.75;;;;;;;10.56;71.93;101717.29;1746764;79;25886;-76
2021/03/29 09:46:33;;;;;;;13.78;7.30;;;;;;;10.45;71.83;101726.05;1722521;79;25735;-79
2021/03/29 09:49:20;;;;;;;12.80;6.97;;;;;;;10.44;72.00;101730.91;1743535;78;25909;-81
2021/03/29 09:51:50;;;;;;;17.10;7.35;;;;;;;10.39;71.80;101731.77;1725171;80;25826;-74
2021/03/29 09:54:32;;;;;;;16.57;8.18;;;;;;;10.35;72.23;101730.39;1743934;79;25322;-74
2021/03/29 09:57:21;;;;;;;13.10;7.40;;;;;;;10.33;72.40;101725.27;1774023;78;26533;-78
2021/03/29 09:59:53;;;;;;;14.63;6.90;;;;;;;10.39;73.03;101732.63;1744860;79;26709;-79
2021/03/29 10:02:28;;;;;;;15.00;7.15;;;;;;;10.36;72.03;101722.88;1748254;79;25735;-78
2021/03/29 10:05:07;;;;;;;16.62;7.50;;;;;;;10.28;72.48;101722.22;1743646;79;25745;-80
2021/03/29 10:07:54;;;;;;;14.60;6.92;;;;;;;10.27;73.04;101715.34;1742521;78;26547;-76
2021/03/29 10:10:35;;;;;;;16.67;7.22;;;;;;;10.33;72.93;101716.61;1712057;81;25502;-77
2021/03/29 10:13:15;;;;;;;17.02;8.08;;;;;;;10.38;72.91;101721.80;1685268;82;26843;-76
2021/03/29 10:15:45;;;;;;;15.40;8.10;;;;;;;10.44;72.91;101716.53;1710479;81;25938;-78
2021/03/29 10:18:18;;;;;;;16.25;8.38;;;;;;;10.48;72.72;101715.81;1743478;79;25864;-80
2021/03/29 10:20:56;;;;;;;16.60;7.72;;;;;;;10.53;72.65;101719.69;1748711;79;26190;-82
2021/03/29 10:23:32;;;;;;;16.45;8.13;;;;;;;10.57;72.83;101720.23;1743296;79;25841;-83
2021/03/29 10:26:28;;;;;;;17.12;9.35;;;;;;;10.61;72.52;101717.70;1762487;78;25900;-83
2021/03/29 10:29:00;;;;;;;21.40;10.00;;;;;;;10.59;72.29;101714.41;1775387;78;25991;-80
2021/03/29 10:31:36;;;;;;;16.15;8.15;;;;;;;10.58;72.39;101711.42;1749305;78;25712;-80
2021/03/29 10:34:03;;;;;;;20.45;10.08;;;;;;;10.62;72.35;101719.37;1778705;78;26165;-84
2021/03/29 10:36:33;;;;;;;17.52;8.38;;;;;;;10.70;72.75;101710.88;1746892;78;26453;-81
2021/03/29 10:39:00;;;;;;;21.10;9.10;;;;;;;10.79;72.60;101712.20;1724537;79;25744;-80
2021/03/29 10:41:31;;;;;;;16.07;9.03;;;;;;;10.89;72.40;101715.67;1743992;80;25747;-80
2021/03/29 10:43:59;;;;;;;16.50;8.20;;;;;;;10.94;72.32;101715.73;1768755;79;25487;-77
2021/03/29 10:46:28;;;;;;;19.70;10.25;;;;;;;10.98;71.38;101723.69;1748709;79;25942;-79
2021/03/29 10:48:54;;;;;;;18.23;10.05;;;;;;;10.87;71.03;101718.89;1766486;77;25675;-78
2021/03/29 10:51:22;;;;;;;18.20;9.75;;;;;;;10.81;71.42;101720.74;1767934;79;26570;-79
2021/03/29 10:53:53;;;;;;;21.60;10.15;;;;;;;10.66;70.06;101711.59;1770109;79;25873;-78
2021/03/29 10:56:24;;;;;;;38.23;11.70;;;;;;;10.56;70.87;101712.88;1767836;79;26423;-78
2021/03/29 10:58:52;;;;;;;27.82;11.28;;;;;;;10.57;71.36;101722.37;1769483;79;25811;-78
2021/03/29 11:01:19;;;;;;;21.20;10.88;;;;;;;10.56;71.36;101726.44;1740638;79;25696;-79
2021/03/29 11:03:49;;;;;;;23.05;12.45;;;;;;;10.53;71.23;101731.45;1768362;79;25783;-79
2021/03/29 11:06:18;;;;;;;19.65;10.93;;;;;;;10.48;71.60;101726.27;1743833;79;26858;-79
2021/03/29 11:08:46;;;;;;;24.98;11.97;;;;;;;10.52;72.04;101721.11;1760558;79;26359;-76
2021/03/29 11:11:14;;;;;;;24.43;11.10;;;;;;;10.55;71.97;101714.30;1763609;79;25600;-77
2021/03/29 11:13:43;;;;;;;25.00;11.63;;;;;;;10.58;71.98;101714.04;1759504;77;25702;-79
2021/03/29 11:16:15;;;;;;;20.68;12.65;;;;;;;10.56;71.60;101717.29;1766277;79;25756;-80
2021/03/29 11:18:42;;;;;;;22.65;11.85;;;;;;;10.47;71.25;101714.13;1764745;79;25883;-79
2021/03/29 11:21:08;;;;;;;26.70;12.37;;;;;;;10.38;71.62;101711.34;1772043;79;25770;-79
2021/03/29 11:23:42;;;;;;;20.62;12.37;;;;;;;10.40;72.09;101710.74;1772142;79;25624;-79
2021/03/29 11:26:13;;;;;;;24.57;12.07;;;;;;;10.45;71.92;101709.05;1703736;81;25393;-79
2021/03/29 11:28:41;;;;;;;20.77;13.05;;;;;;;10.47;72.06;101701.88;1709909;82;25646;-78
2021/03/29 11:31:08;;;;;;;20.23;11.90;;;;;;;10.53;72.28;101705.76;1713101;82;25972;-78
2021/03/29 11:33:35;;;;;;;23.45;12.43;;;;;;;10.62;72.59;101703.20;1711445;82;26022;-78
2021/03/29 11:36:02;;;;;;;25.68;13.70;;;;;;;10.86;72.62;101703.35;1710815;82;25593;-78
2021/03/29 11:38:30;;;;;;;23.32;14.03;;;;;;;10.88;71.67;101701.41;1708580;82;25788;-77
2021/03/29 11:40:59;;;;;;;25.25;14.13;;;;;;;10.85;71.34;101704.30;1717148;81;26385;-79
2021/03/29 11:43:27;;;;;;;23.65;14.20;;;;;;;10.89;71.38;101702.59;1720228;81;26321;-77
2021/03/29 11:45:56;;;;;;;26.55;14.30;;;;;;;10.93;71.41;101699.22;1716990;81;25948;-77
2021/03/29 11:48:23;;;;;;;26.30;14.47;;;;;;;10.89;70.21;101690.83;1722408;81;25937;-77
2021/03/29 11:50:53;;;;;;;23.87;14.38;;;;;;;10.84;70.78;101693.02;1686520;83;25880;-76